sensor_id;sensor_type;location;lat;lon;timestamp;P1;durP1;ratioP1;P2;durP2;ratioP2
35290;SDS011;21411;50.024;19.220;2023-04-15T00:01:58;11.10;;;9.80;;
35290;SDS011;21411;50.024;19.220;2023-04-15T00:04:26;10.30;;;9.30;;
35290;SDS011;21411;50.024;19.220;2023-04-15T00:06:53;11.20;;;10.10;;
35290;SDS011;21411;50.024;19.220;2023-04-15T00:09:20;11.80;;;10.60;;
35290;SDS011;21411;50.024;19.220;2023-04-15T00:11:46;12.20;;;9.70;;
35290;SDS011;21411;50.024;19.220;2023-04-15T00:14:13;9.90;;;8.60;;
35290;SDS011;21411;50.024;19.220;2023-04-15T00:16:40;11.40;;;10.00;;
35290;SDS011;21411;50.024;19.220;2023-04-15T00:19:07;10.60;;;9.50;;
35290;SDS011;21411;50.024;19.220;2023-04-15T00:21:34;14.80;;;11.90;;
35290;SDS011;21411;50.024;19.220;2023-04-15T00:24:00;15.50;;;11.00;;
35290;SDS011;21411;50.024;19.220;2023-04-15T00:26:27;12.80;;;10.50;;
35290;SDS011;21411;50.024;19.220;2023-04-15T00:28:54;15.00;;;12.10;;
35290;SDS011;21411;50.024;19.220;2023-04-15T00:31:20;18.60;;;12.90;;
35290;SDS011;21411;50.024;19.220;2023-04-15T00:33:47;35.50;;;20.90;;
35290;SDS011;21411;50.024;19.220;2023-04-15T00:36:14;48.00;;;25.10;;
35290;SDS011;21411;50.024;19.220;2023-04-15T00:38:41;33.50;;;20.20;;
35290;SDS011;21411;50.024;19.220;2023-04-15T00:41:08;31.50;;;20.40;;
35290;SDS011;21411;50.024;19.220;2023-04-15T00:43:35;30.20;;;18.90;;
35290;SDS011;21411;50.024;19.220;2023-04-15T00:46:03;46.90;;;24.40;;
35290;SDS011;21411;50.024;19.220;2023-04-15T00:48:31;59.80;;;28.70;;
35290;SDS011;21411;50.024;19.220;2023-04-15T00:50:58;63.80;;;29.40;;
35290;SDS011;21411;50.024;19.220;2023-04-15T00:53:24;59.00;;;28.90;;
35290;SDS011;21411;50.024;19.220;2023-04-15T00:55:51;56.30;;;28.70;;
35290;SDS011;21411;50.024;19.220;2023-04-15T00:58:17;55.60;;;27.10;;
35290;SDS011;21411;50.024;19.220;2023-04-15T01:00:44;53.50;;;27.60;;
35290;SDS011;21411;50.024;19.220;2023-04-15T01:03:11;46.10;;;23.80;;
35290;SDS011;21411;50.024;19.220;2023-04-15T01:05:38;44.20;;;23.90;;
35290;SDS011;21411;50.024;19.220;2023-04-15T01:08:04;54.70;;;27.00;;
35290;SDS011;21411;50.024;19.220;2023-04-15T01:10:32;45.60;;;24.70;;
35290;SDS011;21411;50.024;19.220;2023-04-15T01:12:58;47.30;;;26.20;;
35290;SDS011;21411;50.024;19.220;2023-04-15T01:15:25;51.30;;;27.90;;
35290;SDS011;21411;50.024;19.220;2023-04-15T01:17:52;46.60;;;27.00;;
35290;SDS011;21411;50.024;19.220;2023-04-15T01:20:19;45.30;;;25.20;;
35290;SDS011;21411;50.024;19.220;2023-04-15T01:22:47;43.60;;;24.80;;
35290;SDS011;21411;50.024;19.220;2023-04-15T01:25:18;40.20;;;21.00;;
35290;SDS011;21411;50.024;19.220;2023-04-15T01:27:46;38.00;;;20.30;;
35290;SDS011;21411;50.024;19.220;2023-04-15T01:30:12;32.70;;;18.90;;
35290;SDS011;21411;50.024;19.220;2023-04-15T01:32:39;36.20;;;21.10;;
35290;SDS011;21411;50.024;19.220;2023-04-15T01:35:06;33.60;;;19.70;;
35290;SDS011;21411;50.024;19.220;2023-04-15T01:37:33;30.10;;;18.70;;
35290;SDS011;21411;50.024;19.220;2023-04-15T01:40:00;31.60;;;18.90;;
35290;SDS011;21411;50.024;19.220;2023-04-15T01:42:27;32.70;;;19.80;;
35290;SDS011;21411;50.024;19.220;2023-04-15T01:44:53;31.50;;;19.40;;
35290;SDS011;21411;50.024;19.220;2023-04-15T01:47:20;31.40;;;18.60;;
35290;SDS011;21411;50.024;19.220;2023-04-15T01:49:47;30.00;;;17.70;;
35290;SDS011;21411;50.024;19.220;2023-04-15T01:52:14;27.40;;;17.60;;
35290;SDS011;21411;50.024;19.220;2023-04-15T01:54:40;27.50;;;18.30;;
35290;SDS011;21411;50.024;19.220;2023-04-15T01:57:07;31.50;;;18.20;;
35290;SDS011;21411;50.024;19.220;2023-04-15T01:59:34;27.90;;;16.90;;
35290;SDS011;21411;50.024;19.220;2023-04-15T02:02:01;26.60;;;17.70;;
35290;SDS011;21411;50.024;19.220;2023-04-15T02:04:28;36.60;;;29.30;;
35290;SDS011;21411;50.024;19.220;2023-04-15T02:06:54;31.70;;;23.10;;
35290;SDS011;21411;50.024;19.220;2023-04-15T02:09:21;27.80;;;21.10;;
35290;SDS011;21411;50.024;19.220;2023-04-15T02:11:49;27.80;;;21.50;;
35290;SDS011;21411;50.024;19.220;2023-04-15T02:14:16;28.90;;;20.80;;
35290;SDS011;21411;50.024;19.220;2023-04-15T02:16:43;28.00;;;20.80;;
35290;SDS011;21411;50.024;19.220;2023-04-15T02:19:09;27.00;;;20.10;;
35290;SDS011;21411;50.024;19.220;2023-04-15T02:21:36;23.90;;;18.70;;
35290;SDS011;21411;50.024;19.220;2023-04-15T02:24:03;29.70;;;22.30;;
35290;SDS011;21411;50.024;19.220;2023-04-15T02:26:29;29.50;;;23.10;;
35290;SDS011;21411;50.024;19.220;2023-04-15T02:28:58;29.60;;;21.40;;
35290;SDS011;21411;50.024;19.220;2023-04-15T02:31:25;24.00;;;20.00;;
35290;SDS011;21411;50.024;19.220;2023-04-15T02:33:52;23.90;;;19.50;;
35290;SDS011;21411;50.024;19.220;2023-04-15T02:36:19;23.60;;;19.60;;
35290;SDS011;21411;50.024;19.220;2023-04-15T02:38:46;22.90;;;18.90;;
35290;SDS011;21411;50.024;19.220;2023-04-15T02:41:12;22.60;;;17.20;;
35290;SDS011;21411;50.024;19.220;2023-04-15T02:43:39;20.10;;;17.60;;
35290;SDS011;21411;50.024;19.220;2023-04-15T02:46:06;25.90;;;20.30;;
35290;SDS011;21411;50.024;19.220;2023-04-15T02:48:32;22.40;;;20.10;;
35290;SDS011;21411;50.024;19.220;2023-04-15T02:51:12;22.10;;;19.80;;
35290;SDS011;21411;50.024;19.220;2023-04-15T02:53:40;23.80;;;20.20;;
35290;SDS011;21411;50.024;19.220;2023-04-15T02:56:06;24.40;;;21.40;;
35290;SDS011;21411;50.024;19.220;2023-04-15T02:58:36;25.10;;;22.50;;
35290;SDS011;21411;50.024;19.220;2023-04-15T03:01:03;24.90;;;22.40;;
35290;SDS011;21411;50.024;19.220;2023-04-15T03:03:30;24.70;;;22.20;;
35290;SDS011;21411;50.024;19.220;2023-04-15T03:05:56;24.60;;;22.20;;
35290;SDS011;21411;50.024;19.220;2023-04-15T03:08:23;22.90;;;20.60;;
35290;SDS011;21411;50.024;19.220;2023-04-15T03:10:49;19.80;;;17.70;;
35290;SDS011;21411;50.024;19.220;2023-04-15T03:13:18;18.50;;;16.20;;
35290;SDS011;21411;50.024;19.220;2023-04-15T03:15:47;18.70;;;15.40;;
35290;SDS011;21411;50.024;19.220;2023-04-15T03:18:14;14.80;;;12.30;;
35290;SDS011;21411;50.024;19.220;2023-04-15T03:20:40;11.50;;;10.30;;
35290;SDS011;21411;50.024;19.220;2023-04-15T03:23:07;10.40;;;9.40;;
35290;SDS011;21411;50.024;19.220;2023-04-15T03:25:33;12.10;;;8.40;;
35290;SDS011;21411;50.024;19.220;2023-04-15T03:28:03;10.00;;;8.40;;
35290;SDS011;21411;50.024;19.220;2023-04-15T03:30:30;9.60;;;7.50;;
35290;SDS011;21411;50.024;19.220;2023-04-15T03:32:56;8.20;;;7.40;;
35290;SDS011;21411;50.024;19.220;2023-04-15T03:35:23;7.80;;;7.00;;
35290;SDS011;21411;50.024;19.220;2023-04-15T03:37:50;8.10;;;6.60;;
35290;SDS011;21411;50.024;19.220;2023-04-15T03:40:16;7.60;;;6.20;;
35290;SDS011;21411;50.024;19.220;2023-04-15T03:42:43;7.00;;;6.20;;
35290;SDS011;21411;50.024;19.220;2023-04-15T03:45:10;9.20;;;6.00;;
35290;SDS011;21411;50.024;19.220;2023-04-15T03:47:36;8.10;;;7.30;;
35290;SDS011;21411;50.024;19.220;2023-04-15T03:50:03;4.80;;;4.30;;
35290;SDS011;21411;50.024;19.220;2023-04-15T03:52:30;5.50;;;4.10;;
35290;SDS011;21411;50.024;19.220;2023-04-15T03:54:57;5.40;;;3.70;;
35290;SDS011;21411;50.024;19.220;2023-04-15T03:57:23;4.50;;;3.40;;
35290;SDS011;21411;50.024;19.220;2023-04-15T03:59:50;3.00;;;2.70;;
35290;SDS011;21411;50.024;19.220;2023-04-15T04:02:17;4.00;;;2.50;;
35290;SDS011;21411;50.024;19.220;2023-04-15T04:04:43;4.60;;;2.60;;
35290;SDS011;21411;50.024;19.220;2023-04-15T04:07:16;3.50;;;2.50;;
35290;SDS011;21411;50.024;19.220;2023-04-15T04:09:43;2.90;;;2.20;;
35290;SDS011;21411;50.024;19.220;2023-04-15T04:12:10;2.80;;;2.30;;
35290;SDS011;21411;50.024;19.220;2023-04-15T04:14:37;4.30;;;2.90;;
35290;SDS011;21411;50.024;19.220;2023-04-15T04:17:04;4.10;;;2.60;;
35290;SDS011;21411;50.024;19.220;2023-04-15T04:19:30;6.90;;;4.40;;
35290;SDS011;21411;50.024;19.220;2023-04-15T04:21:57;6.40;;;4.50;;
35290;SDS011;21411;50.024;19.220;2023-04-15T04:24:24;8.40;;;5.10;;
35290;SDS011;21411;50.024;19.220;2023-04-15T04:26:51;6.20;;;5.20;;
35290;SDS011;21411;50.024;19.220;2023-04-15T04:29:17;6.80;;;5.10;;
35290;SDS011;21411;50.024;19.220;2023-04-15T04:31:44;5.60;;;4.10;;
35290;SDS011;21411;50.024;19.220;2023-04-15T04:34:12;8.50;;;4.90;;
35290;SDS011;21411;50.024;19.220;2023-04-15T04:36:38;8.80;;;4.80;;
35290;SDS011;21411;50.024;19.220;2023-04-15T04:39:05;8.00;;;5.30;;
35290;SDS011;21411;50.024;19.220;2023-04-15T04:41:31;8.60;;;4.90;;
35290;SDS011;21411;50.024;19.220;2023-04-15T04:43:58;8.40;;;5.90;;
35290;SDS011;21411;50.024;19.220;2023-04-15T04:46:25;8.80;;;6.10;;
35290;SDS011;21411;50.024;19.220;2023-04-15T04:48:51;7.40;;;6.10;;
35290;SDS011;21411;50.024;19.220;2023-04-15T04:51:18;7.10;;;6.30;;
35290;SDS011;21411;50.024;19.220;2023-04-15T04:53:45;7.70;;;5.30;;
35290;SDS011;21411;50.024;19.220;2023-04-15T04:56:11;12.00;;;8.70;;
35290;SDS011;21411;50.024;19.220;2023-04-15T04:58:38;11.10;;;8.50;;
35290;SDS011;21411;50.024;19.220;2023-04-15T05:01:05;12.70;;;9.10;;
35290;SDS011;21411;50.024;19.220;2023-04-15T05:03:31;10.30;;;9.10;;
35290;SDS011;21411;50.024;19.220;2023-04-15T05:05:57;13.70;;;8.80;;
35290;SDS011;21411;50.024;19.220;2023-04-15T05:08:24;13.60;;;11.00;;
35290;SDS011;21411;50.024;19.220;2023-04-15T05:10:51;14.20;;;10.20;;
35290;SDS011;21411;50.024;19.220;2023-04-15T05:13:18;12.90;;;9.80;;
35290;SDS011;21411;50.024;19.220;2023-04-15T05:15:47;13.40;;;10.50;;
35290;SDS011;21411;50.024;19.220;2023-04-15T05:18:13;12.80;;;10.30;;
35290;SDS011;21411;50.024;19.220;2023-04-15T05:20:40;10.40;;;7.90;;
35290;SDS011;21411;50.024;19.220;2023-04-15T05:23:06;9.60;;;7.70;;
35290;SDS011;21411;50.024;19.220;2023-04-15T05:25:33;9.70;;;7.50;;
35290;SDS011;21411;50.024;19.220;2023-04-15T05:27:59;8.60;;;6.40;;
35290;SDS011;21411;50.024;19.220;2023-04-15T05:30:26;14.20;;;7.30;;
35290;SDS011;21411;50.024;19.220;2023-04-15T05:32:53;9.80;;;7.30;;
35290;SDS011;21411;50.024;19.220;2023-04-15T05:35:19;11.70;;;7.70;;
35290;SDS011;21411;50.024;19.220;2023-04-15T05:37:46;10.20;;;7.10;;
35290;SDS011;21411;50.024;19.220;2023-04-15T05:40:12;10.00;;;6.50;;
35290;SDS011;21411;50.024;19.220;2023-04-15T05:42:39;8.60;;;5.90;;
35290;SDS011;21411;50.024;19.220;2023-04-15T05:45:06;7.60;;;5.10;;
35290;SDS011;21411;50.024;19.220;2023-04-15T05:47:34;10.80;;;5.20;;
35290;SDS011;21411;50.024;19.220;2023-04-15T05:50:02;7.20;;;4.90;;
35290;SDS011;21411;50.024;19.220;2023-04-15T05:52:30;8.20;;;5.20;;
35290;SDS011;21411;50.024;19.220;2023-04-15T05:54:56;8.50;;;5.10;;
35290;SDS011;21411;50.024;19.220;2023-04-15T05:57:23;5.80;;;4.30;;
35290;SDS011;21411;50.024;19.220;2023-04-15T05:59:50;5.60;;;4.70;;
35290;SDS011;21411;50.024;19.220;2023-04-15T06:02:19;5.50;;;4.50;;
35290;SDS011;21411;50.024;19.220;2023-04-15T06:04:46;7.40;;;5.70;;
35290;SDS011;21411;50.024;19.220;2023-04-15T06:07:13;7.30;;;5.80;;
35290;SDS011;21411;50.024;19.220;2023-04-15T06:09:39;7.90;;;6.20;;
35290;SDS011;21411;50.024;19.220;2023-04-15T06:12:06;6.40;;;5.00;;
35290;SDS011;21411;50.024;19.220;2023-04-15T06:14:37;7.40;;;4.90;;
35290;SDS011;21411;50.024;19.220;2023-04-15T06:17:05;5.60;;;4.70;;
35290;SDS011;21411;50.024;19.220;2023-04-15T06:19:32;5.10;;;4.60;;
35290;SDS011;21411;50.024;19.220;2023-04-15T06:22:00;7.50;;;5.10;;
35290;SDS011;21411;50.024;19.220;2023-04-15T06:24:27;4.50;;;3.70;;
35290;SDS011;21411;50.024;19.220;2023-04-15T06:26:54;4.40;;;3.90;;
35290;SDS011;21411;50.024;19.220;2023-04-15T06:29:21;4.90;;;4.40;;
35290;SDS011;21411;50.024;19.220;2023-04-15T06:31:47;5.50;;;4.40;;
35290;SDS011;21411;50.024;19.220;2023-04-15T06:34:16;5.50;;;4.10;;
35290;SDS011;21411;50.024;19.220;2023-04-15T06:36:42;5.90;;;4.10;;
35290;SDS011;21411;50.024;19.220;2023-04-15T06:39:09;6.20;;;4.60;;
35290;SDS011;21411;50.024;19.220;2023-04-15T06:41:35;7.20;;;4.60;;
35290;SDS011;21411;50.024;19.220;2023-04-15T06:44:02;5.10;;;4.50;;
35290;SDS011;21411;50.024;19.220;2023-04-15T06:46:28;5.20;;;4.60;;
35290;SDS011;21411;50.024;19.220;2023-04-15T06:48:55;4.90;;;4.00;;
35290;SDS011;21411;50.024;19.220;2023-04-15T06:51:22;4.90;;;4.50;;
35290;SDS011;21411;50.024;19.220;2023-04-15T06:53:49;4.20;;;3.70;;
35290;SDS011;21411;50.024;19.220;2023-04-15T06:56:15;6.00;;;4.10;;
35290;SDS011;21411;50.024;19.220;2023-04-15T06:58:42;4.50;;;3.30;;
35290;SDS011;21411;50.024;19.220;2023-04-15T07:01:08;5.90;;;5.10;;
35290;SDS011;21411;50.024;19.220;2023-04-15T07:03:35;6.70;;;5.30;;
35290;SDS011;21411;50.024;19.220;2023-04-15T07:06:01;4.70;;;4.00;;
35290;SDS011;21411;50.024;19.220;2023-04-15T07:08:31;3.40;;;3.10;;
35290;SDS011;21411;50.024;19.220;2023-04-15T07:10:59;5.00;;;3.90;;
35290;SDS011;21411;50.024;19.220;2023-04-15T07:13:26;3.50;;;2.60;;
35290;SDS011;21411;50.024;19.220;2023-04-15T07:15:53;3.90;;;2.90;;
35290;SDS011;21411;50.024;19.220;2023-04-15T07:18:19;3.00;;;2.50;;
35290;SDS011;21411;50.024;19.220;2023-04-15T07:20:46;4.00;;;2.60;;
35290;SDS011;21411;50.024;19.220;2023-04-15T07:23:13;2.60;;;1.90;;
35290;SDS011;21411;50.024;19.220;2023-04-15T07:25:39;3.00;;;2.10;;
35290;SDS011;21411;50.024;19.220;2023-04-15T07:28:06;4.10;;;3.20;;
35290;SDS011;21411;50.024;19.220;2023-04-15T07:30:32;4.80;;;2.80;;
35290;SDS011;21411;50.024;19.220;2023-04-15T07:33:00;2.70;;;2.10;;
35290;SDS011;21411;50.024;19.220;2023-04-15T07:35:27;2.70;;;2.40;;
35290;SDS011;21411;50.024;19.220;2023-04-15T07:37:54;2.60;;;2.40;;
35290;SDS011;21411;50.024;19.220;2023-04-15T07:40:21;4.20;;;2.60;;
35290;SDS011;21411;50.024;19.220;2023-04-15T07:42:47;3.70;;;2.30;;
35290;SDS011;21411;50.024;19.220;2023-04-15T07:45:14;2.20;;;2.00;;
35290;SDS011;21411;50.024;19.220;2023-04-15T07:47:41;2.80;;;2.60;;
35290;SDS011;21411;50.024;19.220;2023-04-15T07:50:08;3.90;;;2.90;;
35290;SDS011;21411;50.024;19.220;2023-04-15T07:52:36;2.70;;;2.40;;
35290;SDS011;21411;50.024;19.220;2023-04-15T07:55:05;2.90;;;2.70;;
35290;SDS011;21411;50.024;19.220;2023-04-15T07:57:35;5.50;;;2.20;;
35290;SDS011;21411;50.024;19.220;2023-04-15T08:00:03;2.50;;;2.10;;
35290;SDS011;21411;50.024;19.220;2023-04-15T08:02:30;1.90;;;1.60;;
35290;SDS011;21411;50.024;19.220;2023-04-15T08:04:57;1.50;;;1.40;;
35290;SDS011;21411;50.024;19.220;2023-04-15T08:07:24;2.70;;;1.50;;
35290;SDS011;21411;50.024;19.220;2023-04-15T08:09:51;2.50;;;1.70;;
35290;SDS011;21411;50.024;19.220;2023-04-15T08:12:18;1.50;;;1.30;;
35290;SDS011;21411;50.024;19.220;2023-04-15T08:14:44;5.40;;;1.90;;
35290;SDS011;21411;50.024;19.220;2023-04-15T08:17:11;2.70;;;2.00;;
35290;SDS011;21411;50.024;19.220;2023-04-15T08:19:38;2.80;;;1.70;;
35290;SDS011;21411;50.024;19.220;2023-04-15T08:22:06;3.30;;;2.10;;
35290;SDS011;21411;50.024;19.220;2023-04-15T08:24:32;2.00;;;1.80;;
35290;SDS011;21411;50.024;19.220;2023-04-15T08:26:59;1.70;;;1.60;;
35290;SDS011;21411;50.024;19.220;2023-04-15T08:29:26;2.80;;;2.20;;
35290;SDS011;21411;50.024;19.220;2023-04-15T08:31:53;2.80;;;1.90;;
35290;SDS011;21411;50.024;19.220;2023-04-15T08:34:19;1.80;;;1.60;;
35290;SDS011;21411;50.024;19.220;2023-04-15T08:36:46;1.70;;;1.60;;
35290;SDS011;21411;50.024;19.220;2023-04-15T08:39:12;2.30;;;1.90;;
35290;SDS011;21411;50.024;19.220;2023-04-15T08:41:39;2.10;;;1.90;;
35290;SDS011;21411;50.024;19.220;2023-04-15T08:44:17;2.00;;;1.60;;
35290;SDS011;21411;50.024;19.220;2023-04-15T08:46:43;3.90;;;1.80;;
35290;SDS011;21411;50.024;19.220;2023-04-15T08:49:10;2.30;;;1.80;;
35290;SDS011;21411;50.024;19.220;2023-04-15T08:51:39;2.60;;;2.40;;
35290;SDS011;21411;50.024;19.220;2023-04-15T08:54:07;2.60;;;2.10;;
35290;SDS011;21411;50.024;19.220;2023-04-15T08:56:34;2.80;;;1.70;;
35290;SDS011;21411;50.024;19.220;2023-04-15T08:59:02;4.00;;;1.60;;
35290;SDS011;21411;50.024;19.220;2023-04-15T09:01:28;1.90;;;1.70;;
35290;SDS011;21411;50.024;19.220;2023-04-15T09:03:55;2.20;;;1.80;;
35290;SDS011;21411;50.024;19.220;2023-04-15T09:06:22;2.50;;;1.60;;
35290;SDS011;21411;50.024;19.220;2023-04-15T09:08:49;1.90;;;1.50;;
35290;SDS011;21411;50.024;19.220;2023-04-15T09:11:17;1.70;;;1.10;;
35290;SDS011;21411;50.024;19.220;2023-04-15T09:13:44;1.60;;;1.20;;
35290;SDS011;21411;50.024;19.220;2023-04-15T09:16:12;1.50;;;1.30;;
35290;SDS011;21411;50.024;19.220;2023-04-15T09:18:38;2.20;;;1.60;;
35290;SDS011;21411;50.024;19.220;2023-04-15T09:21:09;1.80;;;1.40;;
35290;SDS011;21411;50.024;19.220;2023-04-15T09:23:37;0.90;;;0.90;;
35290;SDS011;21411;50.024;19.220;2023-04-15T09:26:05;1.10;;;0.90;;
35290;SDS011;21411;50.024;19.220;2023-04-15T09:28:33;1.90;;;1.10;;
35290;SDS011;21411;50.024;19.220;2023-04-15T09:31:07;1.10;;;1.00;;
35290;SDS011;21411;50.024;19.220;2023-04-15T09:33:35;2.20;;;1.20;;
35290;SDS011;21411;50.024;19.220;2023-04-15T09:36:21;1.80;;;1.50;;
35290;SDS011;21411;50.024;19.220;2023-04-15T09:38:55;1.50;;;1.40;;
35290;SDS011;21411;50.024;19.220;2023-04-15T09:41:23;1.80;;;1.30;;
35290;SDS011;21411;50.024;19.220;2023-04-15T09:43:50;1.50;;;1.30;;
35290;SDS011;21411;50.024;19.220;2023-04-15T09:46:17;1.50;;;1.40;;
35290;SDS011;21411;50.024;19.220;2023-04-15T09:48:44;1.30;;;1.20;;
35290;SDS011;21411;50.024;19.220;2023-04-15T09:51:11;1.30;;;1.20;;
35290;SDS011;21411;50.024;19.220;2023-04-15T09:53:37;2.20;;;1.90;;
35290;SDS011;21411;50.024;19.220;2023-04-15T09:56:04;1.40;;;1.10;;
35290;SDS011;21411;50.024;19.220;2023-04-15T09:58:33;3.50;;;1.50;;
35290;SDS011;21411;50.024;19.220;2023-04-15T10:01:04;1.80;;;1.20;;
35290;SDS011;21411;50.024;19.220;2023-04-15T10:03:35;2.10;;;1.20;;
35290;SDS011;21411;50.024;19.220;2023-04-15T10:06:04;1.10;;;1.00;;
35290;SDS011;21411;50.024;19.220;2023-04-15T10:08:31;1.30;;;1.10;;
35290;SDS011;21411;50.024;19.220;2023-04-15T10:11:00;1.40;;;1.30;;
35290;SDS011;21411;50.024;19.220;2023-04-15T10:13:28;1.90;;;1.30;;
35290;SDS011;21411;50.024;19.220;2023-04-15T10:16:13;1.40;;;1.30;;
35290;SDS011;21411;50.024;19.220;2023-04-15T10:18:42;1.70;;;1.60;;
35290;SDS011;21411;50.024;19.220;2023-04-15T10:21:10;1.60;;;1.50;;
35290;SDS011;21411;50.024;19.220;2023-04-15T10:23:46;1.80;;;1.60;;
35290;SDS011;21411;50.024;19.220;2023-04-15T10:26:14;1.80;;;1.70;;
35290;SDS011;21411;50.024;19.220;2023-04-15T10:28:43;2.30;;;1.80;;
35290;SDS011;21411;50.024;19.220;2023-04-15T10:31:13;2.30;;;1.90;;
35290;SDS011;21411;50.024;19.220;2023-04-15T10:33:40;1.80;;;1.70;;
35290;SDS011;21411;50.024;19.220;2023-04-15T10:36:08;3.10;;;2.10;;
35290;SDS011;21411;50.024;19.220;2023-04-15T10:38:40;2.00;;;1.80;;
35290;SDS011;21411;50.024;19.220;2023-04-15T10:43:38;1.80;;;1.70;;
35290;SDS011;21411;50.024;19.220;2023-04-15T10:46:05;2.20;;;1.30;;
35290;SDS011;21411;50.024;19.220;2023-04-15T10:48:31;4.40;;;1.50;;
35290;SDS011;21411;50.024;19.220;2023-04-15T10:51:01;2.00;;;1.90;;
35290;SDS011;21411;50.024;19.220;2023-04-15T10:53:30;3.40;;;1.70;;
35290;SDS011;21411;50.024;19.220;2023-04-15T10:55:57;1.50;;;1.40;;
35290;SDS011;21411;50.024;19.220;2023-04-15T10:58:24;1.80;;;1.50;;
35290;SDS011;21411;50.024;19.220;2023-04-15T11:00:52;1.90;;;1.50;;
35290;SDS011;21411;50.024;19.220;2023-04-15T11:06:16;2.50;;;2.00;;
35290;SDS011;21411;50.024;19.220;2023-04-15T11:08:53;4.00;;;1.90;;
35290;SDS011;21411;50.024;19.220;2023-04-15T11:14:28;2.70;;;2.40;;
35290;SDS011;21411;50.024;19.220;2023-04-15T11:16:54;2.80;;;2.00;;
35290;SDS011;21411;50.024;19.220;2023-04-15T11:19:21;2.00;;;1.80;;
35290;SDS011;21411;50.024;19.220;2023-04-15T11:21:47;2.40;;;2.10;;
35290;SDS011;21411;50.024;19.220;2023-04-15T11:24:26;2.30;;;1.90;;
35290;SDS011;21411;50.024;19.220;2023-04-15T11:26:56;2.50;;;2.30;;
35290;SDS011;21411;50.024;19.220;2023-04-15T11:29:33;2.10;;;1.90;;
35290;SDS011;21411;50.024;19.220;2023-04-15T11:32:08;1.60;;;1.50;;
35290;SDS011;21411;50.024;19.220;2023-04-15T11:34:35;2.70;;;1.80;;
35290;SDS011;21411;50.024;19.220;2023-04-15T11:37:05;2.10;;;1.90;;
35290;SDS011;21411;50.024;19.220;2023-04-15T11:39:31;5.30;;;3.20;;
35290;SDS011;21411;50.024;19.220;2023-04-15T11:41:58;3.00;;;2.70;;
35290;SDS011;21411;50.024;19.220;2023-04-15T11:44:24;2.30;;;2.10;;
35290;SDS011;21411;50.024;19.220;2023-04-15T11:46:51;3.80;;;2.10;;
35290;SDS011;21411;50.024;19.220;2023-04-15T11:49:25;2.40;;;2.20;;
35290;SDS011;21411;50.024;19.220;2023-04-15T11:51:52;2.30;;;2.10;;
35290;SDS011;21411;50.024;19.220;2023-04-15T11:54:19;2.40;;;2.30;;
35290;SDS011;21411;50.024;19.220;2023-04-15T11:56:49;2.30;;;2.10;;
35290;SDS011;21411;50.024;19.220;2023-04-15T11:59:17;2.10;;;1.90;;
35290;SDS011;21411;50.024;19.220;2023-04-15T12:01:43;2.80;;;2.60;;
35290;SDS011;21411;50.024;19.220;2023-04-15T12:04:12;2.30;;;2.10;;
35290;SDS011;21411;50.024;19.220;2023-04-15T12:06:42;2.70;;;2.50;;
35290;SDS011;21411;50.024;19.220;2023-04-15T12:09:09;2.30;;;2.10;;
35290;SDS011;21411;50.024;19.220;2023-04-15T12:16:50;2.60;;;2.40;;
35290;SDS011;21411;50.024;19.220;2023-04-15T12:19:26;2.40;;;2.10;;
35290;SDS011;21411;50.024;19.220;2023-04-15T12:21:58;2.30;;;2.10;;
35290;SDS011;21411;50.024;19.220;2023-04-15T12:24:27;2.60;;;2.40;;
35290;SDS011;21411;50.024;19.220;2023-04-15T12:26:58;2.60;;;2.40;;
35290;SDS011;21411;50.024;19.220;2023-04-15T12:29:28;2.50;;;2.30;;
35290;SDS011;21411;50.024;19.220;2023-04-15T12:32:14;2.30;;;2.10;;
35290;SDS011;21411;50.024;19.220;2023-04-15T12:34:42;3.90;;;2.00;;
35290;SDS011;21411;50.024;19.220;2023-04-15T12:37:14;2.70;;;1.90;;
35290;SDS011;21411;50.024;19.220;2023-04-15T12:39:41;2.10;;;1.90;;
35290;SDS011;21411;50.024;19.220;2023-04-15T12:42:11;2.50;;;2.30;;
35290;SDS011;21411;50.024;19.220;2023-04-15T12:44:38;3.10;;;2.70;;
35290;SDS011;21411;50.024;19.220;2023-04-15T12:47:05;2.50;;;2.30;;
35290;SDS011;21411;50.024;19.220;2023-04-15T12:49:33;2.30;;;2.00;;
35290;SDS011;21411;50.024;19.220;2023-04-15T12:52:01;2.00;;;1.90;;
35290;SDS011;21411;50.024;19.220;2023-04-15T12:54:28;2.20;;;2.00;;
35290;SDS011;21411;50.024;19.220;2023-04-15T12:56:56;2.30;;;2.10;;
35290;SDS011;21411;50.024;19.220;2023-04-15T12:59:23;2.60;;;2.10;;
35290;SDS011;21411;50.024;19.220;2023-04-15T13:01:50;4.00;;;2.30;;
35290;SDS011;21411;50.024;19.220;2023-04-15T13:04:18;2.30;;;1.80;;
35290;SDS011;21411;50.024;19.220;2023-04-15T13:06:45;2.50;;;2.30;;
35290;SDS011;21411;50.024;19.220;2023-04-15T13:09:12;2.10;;;1.90;;
35290;SDS011;21411;50.024;19.220;2023-04-15T13:11:38;2.70;;;2.20;;
35290;SDS011;21411;50.024;19.220;2023-04-15T13:14:06;3.00;;;2.60;;
35290;SDS011;21411;50.024;19.220;2023-04-15T13:16:34;2.70;;;2.50;;
35290;SDS011;21411;50.024;19.220;2023-04-15T13:19:01;2.50;;;2.30;;
35290;SDS011;21411;50.024;19.220;2023-04-15T13:21:29;3.60;;;3.00;;
35290;SDS011;21411;50.024;19.220;2023-04-15T13:23:56;2.10;;;2.00;;
35290;SDS011;21411;50.024;19.220;2023-04-15T13:26:22;2.60;;;2.40;;
35290;SDS011;21411;50.024;19.220;2023-04-15T13:28:49;4.20;;;3.80;;
35290;SDS011;21411;50.024;19.220;2023-04-15T13:31:16;3.00;;;2.70;;
35290;SDS011;21411;50.024;19.220;2023-04-15T13:33:42;2.90;;;2.50;;
35290;SDS011;21411;50.024;19.220;2023-04-15T13:36:09;3.10;;;2.80;;
35290;SDS011;21411;50.024;19.220;2023-04-15T13:38:35;3.70;;;3.20;;
35290;SDS011;21411;50.024;19.220;2023-04-15T13:41:02;4.50;;;3.60;;
35290;SDS011;21411;50.024;19.220;2023-04-15T13:43:28;2.80;;;2.60;;
35290;SDS011;21411;50.024;19.220;2023-04-15T13:45:58;3.70;;;2.40;;
35290;SDS011;21411;50.024;19.220;2023-04-15T13:48:25;2.50;;;2.30;;
35290;SDS011;21411;50.024;19.220;2023-04-15T13:50:51;2.50;;;2.30;;
35290;SDS011;21411;50.024;19.220;2023-04-15T13:53:18;2.60;;;2.30;;
35290;SDS011;21411;50.024;19.220;2023-04-15T13:55:44;3.70;;;2.30;;
35290;SDS011;21411;50.024;19.220;2023-04-15T13:58:11;3.00;;;2.50;;
35290;SDS011;21411;50.024;19.220;2023-04-15T14:00:37;2.40;;;2.20;;
35290;SDS011;21411;50.024;19.220;2023-04-15T14:03:04;2.40;;;2.20;;
35290;SDS011;21411;50.024;19.220;2023-04-15T14:05:31;2.80;;;2.50;;
35290;SDS011;21411;50.024;19.220;2023-04-15T14:07:58;4.40;;;2.80;;
35290;SDS011;21411;50.024;19.220;2023-04-15T14:10:25;3.60;;;2.40;;
35290;SDS011;21411;50.024;19.220;2023-04-15T14:12:52;2.70;;;2.40;;
35290;SDS011;21411;50.024;19.220;2023-04-15T14:15:18;3.70;;;2.20;;
35290;SDS011;21411;50.024;19.220;2023-04-15T14:17:45;2.70;;;2.50;;
35290;SDS011;21411;50.024;19.220;2023-04-15T14:20:11;2.60;;;2.40;;
35290;SDS011;21411;50.024;19.220;2023-04-15T14:22:38;2.20;;;2.00;;
35290;SDS011;21411;50.024;19.220;2023-04-15T14:25:05;3.80;;;2.30;;
35290;SDS011;21411;50.024;19.220;2023-04-15T14:27:32;2.90;;;2.10;;
35290;SDS011;21411;50.024;19.220;2023-04-15T14:29:59;3.20;;;2.80;;
35290;SDS011;21411;50.024;19.220;2023-04-15T14:32:25;2.90;;;2.50;;
35290;SDS011;21411;50.024;19.220;2023-04-15T14:34:52;2.50;;;2.30;;
35290;SDS011;21411;50.024;19.220;2023-04-15T14:37:18;3.40;;;2.40;;
35290;SDS011;21411;50.024;19.220;2023-04-15T14:39:45;2.40;;;2.20;;
35290;SDS011;21411;50.024;19.220;2023-04-15T14:42:17;3.20;;;2.10;;
35290;SDS011;21411;50.024;19.220;2023-04-15T14:44:43;4.00;;;2.00;;